| time (UTC) | temp C | wind direction | speed KPH | gust KPH | rain 1hr cm | rain 24hr cm | rain mn cm | humidity % | barometer mb |
| 20260506233043 | 13 | 224 | 0.0 | 4.8 | 0.08 | 0.66 | 0.66 | 86 | 1006.0 |
| 20260506231541 | 13 | 241 | 3.2 | 9.7 | 0.00 | 0.58 | 0.58 | 86 | 1005.8 |
| 20260506230047 | 13 | 212 | 1.6 | 8.0 | 0.00 | 0.58 | 0.58 | 86 | 1005.7 |
| 20260506224540 | 13 | 231 | 1.6 | 8.0 | 0.03 | 0.58 | 0.58 | 86 | 1005.4 |
| 20260506223036 | 13 | 113 | 1.6 | 6.4 | 0.03 | 0.58 | 0.58 | 86 | 1005.4 |
| 20260506221535 | 13 | 249 | 1.6 | 6.4 | 0.05 | 0.58 | 0.58 | 86 | 1005.3 |
| 20260506220057 | 13 | 0 | 1.6 | 11.3 | 0.13 | 0.58 | 0.58 | 86 | 1005.1 |
| 20260506214545 | 13 | 101 | 0.0 | 6.4 | 0.15 | 0.56 | 0.56 | 85 | 1005.3 |
| 20260506213042 | 13 | 259 | 1.6 | 6.4 | 0.15 | 0.56 | 0.56 | 85 | 1005.4 |
| 20260506211542 | 13 | 255 | 1.6 | 8.0 | 0.15 | 0.53 | 0.53 | 85 | 1005.0 |
| 20260506210038 | 13 | 284 | 1.6 | 8.0 | 0.08 | 0.46 | 0.46 | 85 | 1005.1 |
| 20260506204544 | 13 | 0 | 1.6 | 16.1 | 0.08 | 0.41 | 0.41 | 85 | 1005.2 |
| 20260506203057 | 13 | 77 | 1.6 | 11.3 | 0.10 | 0.41 | 0.41 | 85 | 1005.4 |
| 20260506201541 | 13 | 106 | 4.8 | 16.1 | 0.10 | 0.38 | 0.38 | 85 | 1005.5 |
| 20260506200047 | 13 | 75 | 3.2 | 16.1 | 0.08 | 0.36 | 0.36 | 85 | 1005.6 |
| 20260506194536 | 13 | 61 | 3.2 | 17.7 | 0.05 | 0.33 | 0.33 | 84 | 1005.8 |
| 20260506193035 | 13 | 247 | 3.2 | 17.7 | 0.03 | 0.30 | 0.30 | 84 | 1006.0 |
| 20260506191544 | 13 | 240 | 1.6 | 11.3 | 0.00 | 0.28 | 0.28 | 83 | 1006.1 |
| 20260506190048 | 13 | 235 | 1.6 | 12.9 | 0.03 | 0.28 | 0.28 | 83 | 1006.2 |
| 20260506184548 | 13 | 98 | 3.2 | 16.1 | 0.05 | 0.28 | 0.28 | 82 | 1006.5 |
| 20260506183035 | 13 | 214 | 1.6 | 11.3 | 0.08 | 0.28 | 0.28 | 81 | 1006.5 |
| 20260506181541 | 14 | 241 | 1.6 | 9.7 | 0.10 | 0.28 | 0.28 | 80 | 1006.7 |
| 20260506180042 | 14 | 119 | 1.6 | 8.0 | 0.13 | 0.25 | 0.25 | 79 | 1006.7 |
| 20260506174543 | 14 | 0 | 1.6 | 9.7 | 0.13 | 0.20 | 0.20 | 76 | 1006.6 |
| 20260506173050 | 15 | 106 | 1.6 | 12.9 | 0.20 | 0.20 | 0.20 | 75 | 1006.7 |
| 20260506171537 | 15 | 0 | 0.0 | 4.8 | 0.18 | 0.18 | 0.18 | 74 | 1006.8 |
| 20260506170035 | 15 | 211 | 1.6 | 6.4 | 0.10 | 0.10 | 0.10 | 70 | 1007.5 |
| 20260506164547 | 15 | 146 | 0.0 | 6.4 | 0.05 | 0.05 | 0.05 | 68 | 1008.0 |
| 20260506163056 | 16 | 122 | 1.6 | 8.0 | 0.00 | 0.00 | 0.00 | 66 | 1007.9 |
| 20260506161537 | 16 | 243 | 1.6 | 9.7 | 0.00 | 0.00 | 0.00 | 64 | 1007.8 |
| 20260506160036 | 17 | 234 | 1.6 | 12.9 | 0.00 | 0.00 | 0.00 | 63 | 1007.8 |
| 20260506154552 | 17 | 51 | 1.6 | 9.7 | 0.00 | 0.00 | 0.00 | 60 | 1008.1 |
| 20260506153033 | 17 | 75 | 3.2 | 14.5 | 0.00 | 0.00 | 0.00 | 60 | 1008.3 |
| 20260506151541 | 17 | 226 | 4.8 | 16.1 | 0.00 | 0.00 | 0.00 | 60 | 1008.2 |
| 20260506150038 | 16 | 276 | 1.6 | 12.9 | 0.00 | 0.00 | 0.00 | 61 | 1008.2 |
| 20260506144534 | 16 | 103 | 1.6 | 12.9 | 0.00 | 0.00 | 0.00 | 61 | 1008.3 |
| 20260506143042 | 16 | 80 | 1.6 | 12.9 | 0.00 | 0.00 | 0.00 | 61 | 1008.6 |
| 20260506141541 | 16 | 116 | 0.0 | 9.7 | 0.00 | 0.00 | 0.00 | 62 | 1008.6 |
| 20260506140041 | 16 | 256 | 1.6 | 11.3 | 0.00 | 0.00 | 0.00 | 62 | 1008.7 |
| 20260506134535 | 16 | 199 | 1.6 | 19.3 | 0.00 | 0.00 | 0.00 | 63 | 1008.5 |
| 20260506133036 | 15 | 165 | 1.6 | 12.9 | 0.00 | 0.00 | 0.00 | 64 | 1008.7 |
| 20260506131537 | 15 | 94 | 3.2 | 14.5 | 0.00 | 0.00 | 0.00 | 63 | 1008.1 |
| 20260506130041 | 15 | 189 | 0.0 | 8.0 | 0.00 | 0.00 | 0.00 | 65 | 1008.6 |
| 20260506124544 | 15 | 141 | 1.6 | 6.4 | 0.00 | 0.00 | 0.00 | 66 | 1008.6 |
| 20260506123037 | 15 | 238 | 0.0 | 4.8 | 0.00 | 0.00 | 0.00 | 66 | 1008.8 |
| 20260506121543 | 14 | 108 | 1.6 | 3.2 | 0.00 | 0.00 | 0.00 | 67 | 1009.0 |
| 20260506120039 | 13 | 304 | 1.6 | 11.3 | 0.00 | 0.00 | 0.00 | 68 | 1008.8 |
| 20260506114542 | 13 | 72 | 0.0 | 8.0 | 0.00 | 0.00 | 0.00 | 70 | 1008.8 |
| 20260506113041 | 13 | 300 | 0.0 | 4.8 | 0.00 | 0.00 | 0.00 | 71 | 1008.9 |
| 20260506111542 | 13 | 129 | 1.6 | 6.4 | 0.00 | 0.00 | 0.00 | 72 | 1008.9 |
| 20260506110040 | 13 | 121 | 0.0 | 4.8 | 0.00 | 0.00 | 0.00 | 73 | 1008.9 |
| 20260506104536 | 12 | 151 | 1.6 | 6.4 | 0.00 | 0.00 | 0.00 | 74 | 1008.9 |
| 20260506103034 | 12 | 0 | 0.0 | 6.4 | 0.00 | 0.00 | 0.00 | 74 | 1008.8 |
| 20260506101534 | 12 | 110 | 1.6 | 8.0 | 0.00 | 0.00 | 0.00 | 74 | 1008.9 |
| 20260506100040 | 12 | 221 | 0.0 | 6.4 | 0.00 | 0.00 | 0.00 | 73 | 1008.8 |
| 20260506094539 | 12 | 179 | 0.0 | 6.4 | 0.00 | 0.00 | 0.00 | 72 | 1008.7 |
| 20260506093036 | 12 | 124 | 0.0 | 6.4 | 0.00 | 0.00 | 0.00 | 71 | 1008.6 |
| 20260506091535 | 12 | 177 | 1.6 | 6.4 | 0.00 | 0.00 | 0.00 | 70 | 1008.6 |
| 20260506090046 | 12 | 94 | 0.0 | 6.4 | 0.00 | 0.00 | 0.00 | 69 | 1008.8 |
| 20260506084542 | 12 | 0 | 0.0 | 4.8 | 0.00 | 0.00 | 0.00 | 69 | 1008.9 |
| 20260506083041 | 12 | 129 | 0.0 | 9.7 | 0.00 | 0.00 | 0.00 | 68 | 1008.8 |
| 20260506081541 | 12 | 79 | 0.0 | 8.0 | 0.00 | 0.00 | 0.00 | 68 | 1009.0 |
| 20260506073034 | 12 | 217 | 0.0 | 9.7 | 0.00 | 0.00 | 0.00 | 67 | 1009.1 |
| 20260506071542 | 13 | 150 | 0.0 | 3.2 | 0.00 | 0.00 | 0.00 | 65 | 1009.0 |
| 20260506061535 | 14 | 148 | 0.0 | 4.8 | 0.00 | 0.00 | 0.00 | 62 | 1008.9 |
| 20260506044543 | 15 | 141 | 0.0 | 9.7 | 0.00 | 0.00 | 0.00 | 57 | 1009.7 |
| 20260506043036 | 15 | 139 | 0.0 | 8.0 | 0.00 | 0.00 | 0.00 | 56 | 1009.7 |
| 20260506041550 | 16 | 250 | 0.0 | 9.7 | 0.00 | 0.00 | 0.00 | 56 | 1009.8 |
| 20260506040035 | 16 | 96 | 0.0 | 12.9 | 0.00 | 0.00 | 0.00 | 55 | 1009.7 |
| 20260506034547 | 16 | 0 | 0.0 | 9.7 | 0.00 | 0.00 | 0.00 | 55 | 1009.7 |
| 20260506033039 | 16 | 0 | 3.2 | 9.7 | 0.00 | 0.00 | 0.00 | 55 | 1009.7 |
| 20260506031535 | 16 | 0 | 1.6 | 9.7 | 0.00 | 0.00 | 0.00 | 54 | 1009.7 |
| 20260506030038 | 16 | 143 | 1.6 | 8.0 | 0.00 | 0.00 | 0.00 | 54 | 1009.6 |
| 20260506024541 | 16 | 213 | 0.0 | 6.4 | 0.00 | 0.00 | 0.00 | 53 | 1009.5 |
| 20260506023043 | 16 | 293 | 0.0 | 8.0 | 0.00 | 0.00 | 0.00 | 53 | 1009.6 |
| 20260506021536 | 16 | 218 | 0.0 | 8.0 | 0.00 | 0.00 | 0.00 | 52 | 1009.5 |
| 20260506020034 | 16 | 225 | 0.0 | 11.3 | 0.00 | 0.00 | 0.00 | 51 | 1009.5 |
| 20260506014541 | 17 | 156 | 0.0 | 4.8 | 0.00 | 0.00 | 0.00 | 52 | 1009.4 |
| 20260506013051 | 17 | 128 | 0.0 | 8.0 | 0.00 | 0.00 | 0.00 | 52 | 1009.2 |
| 20260506011542 | 17 | 111 | 1.6 | 9.7 | 0.00 | 0.00 | 0.00 | 52 | 1009.0 |
| 20260506010037 | 17 | 142 | 1.6 | 8.0 | 0.00 | 0.00 | 0.00 | 52 | 1008.8 |
| 20260506004534 | 17 | 120 | 0.0 | 4.8 | 0.00 | 0.00 | 0.00 | 51 | 1008.6 |
| 20260506003041 | 17 | 102 | 0.0 | 12.9 | 0.00 | 0.00 | 0.00 | 50 | 1008.4 |
| 20260506001536 | 17 | 116 | 0.0 | 6.4 | 0.00 | 0.00 | 0.00 | 49 | 1008.2 |
| 20260506000036 | 18 | 115 | 1.6 | 14.5 | 0.00 | 0.00 | 0.00 | 47 | 1007.9 |
| 20260505234535 | 18 | 140 | 1.6 | 4.8 | 0.00 | 0.00 | 0.00 | 46 | 1007.7 |